sensor_id;sensor_type;location;lat;lon;timestamp;P1;durP1;ratioP1;P2;durP2;ratioP2
10725;SDS011;5414;59.782;16.378;2023-08-06T00:01:18;3.90;;;2.30;;
10725;SDS011;5414;59.782;16.378;2023-08-06T00:03:46;3.97;;;2.43;;
10725;SDS011;5414;59.782;16.378;2023-08-06T00:06:12;2.60;;;2.40;;
10725;SDS011;5414;59.782;16.378;2023-08-06T00:08:38;4.80;;;2.77;;
10725;SDS011;5414;59.782;16.378;2023-08-06T00:11:04;3.07;;;2.67;;
10725;SDS011;5414;59.782;16.378;2023-08-06T00:13:30;3.33;;;2.57;;
10725;SDS011;5414;59.782;16.378;2023-08-06T00:16:07;4.03;;;2.70;;
10725;SDS011;5414;59.782;16.378;2023-08-06T00:18:33;4.23;;;3.00;;
10725;SDS011;5414;59.782;16.378;2023-08-06T00:20:59;3.77;;;2.77;;
10725;SDS011;5414;59.782;16.378;2023-08-06T00:23:25;3.90;;;2.90;;
10725;SDS011;5414;59.782;16.378;2023-08-06T00:25:51;3.33;;;3.03;;
10725;SDS011;5414;59.782;16.378;2023-08-06T00:28:17;3.97;;;2.90;;
10725;SDS011;5414;59.782;16.378;2023-08-06T00:30:43;6.10;;;3.17;;
10725;SDS011;5414;59.782;16.378;2023-08-06T00:33:09;5.03;;;3.40;;
10725;SDS011;5414;59.782;16.378;2023-08-06T00:35:35;3.27;;;2.97;;
10725;SDS011;5414;59.782;16.378;2023-08-06T00:38:01;5.53;;;3.00;;
10725;SDS011;5414;59.782;16.378;2023-08-06T00:40:27;3.97;;;3.00;;
10725;SDS011;5414;59.782;16.378;2023-08-06T00:42:55;3.80;;;2.47;;
10725;SDS011;5414;59.782;16.378;2023-08-06T00:45:21;3.47;;;2.40;;
10725;SDS011;5414;59.782;16.378;2023-08-06T00:47:49;2.97;;;2.53;;
10725;SDS011;5414;59.782;16.378;2023-08-06T00:50:15;4.03;;;2.50;;
10725;SDS011;5414;59.782;16.378;2023-08-06T00:52:41;6.47;;;3.13;;
10725;SDS011;5414;59.782;16.378;2023-08-06T00:55:07;4.87;;;3.23;;
10725;SDS011;5414;59.782;16.378;2023-08-06T00:57:35;3.73;;;3.17;;
10725;SDS011;5414;59.782;16.378;2023-08-06T01:00:02;3.77;;;2.83;;
10725;SDS011;5414;59.782;16.378;2023-08-06T01:02:29;3.07;;;2.77;;
10725;SDS011;5414;59.782;16.378;2023-08-06T01:04:55;3.63;;;2.60;;
10725;SDS011;5414;59.782;16.378;2023-08-06T01:09:53;5.23;;;2.90;;
10725;SDS011;5414;59.782;16.378;2023-08-06T01:15:11;7.63;;;3.43;;
10725;SDS011;5414;59.782;16.378;2023-08-06T01:17:38;3.20;;;2.90;;
10725;SDS011;5414;59.782;16.378;2023-08-06T01:20:04;4.53;;;2.60;;
10725;SDS011;5414;59.782;16.378;2023-08-06T01:22:30;4.47;;;2.90;;
10725;SDS011;5414;59.782;16.378;2023-08-06T01:24:56;3.23;;;2.63;;
10725;SDS011;5414;59.782;16.378;2023-08-06T01:30:10;4.23;;;2.80;;
10725;SDS011;5414;59.782;16.378;2023-08-06T01:32:39;4.23;;;2.73;;
10725;SDS011;5414;59.782;16.378;2023-08-06T01:35:09;4.70;;;2.40;;
10725;SDS011;5414;59.782;16.378;2023-08-06T01:37:37;3.67;;;2.57;;
10725;SDS011;5414;59.782;16.378;2023-08-06T01:40:09;3.03;;;2.40;;
10725;SDS011;5414;59.782;16.378;2023-08-06T01:42:35;5.77;;;2.60;;
10725;SDS011;5414;59.782;16.378;2023-08-06T01:45:01;3.13;;;2.83;;
10725;SDS011;5414;59.782;16.378;2023-08-06T01:47:28;2.67;;;2.47;;
10725;SDS011;5414;59.782;16.378;2023-08-06T01:49:54;5.07;;;2.30;;
10725;SDS011;5414;59.782;16.378;2023-08-06T01:52:20;3.43;;;3.07;;
10725;SDS011;5414;59.782;16.378;2023-08-06T01:54:46;7.23;;;2.90;;
10725;SDS011;5414;59.782;16.378;2023-08-06T01:57:12;5.40;;;2.67;;
10725;SDS011;5414;59.782;16.378;2023-08-06T01:59:38;4.07;;;2.50;;
10725;SDS011;5414;59.782;16.378;2023-08-06T02:02:04;4.77;;;3.03;;
10725;SDS011;5414;59.782;16.378;2023-08-06T02:04:31;3.90;;;2.70;;
10725;SDS011;5414;59.782;16.378;2023-08-06T02:06:57;4.67;;;2.70;;
10725;SDS011;5414;59.782;16.378;2023-08-06T02:09:23;4.83;;;3.17;;
10725;SDS011;5414;59.782;16.378;2023-08-06T02:11:49;4.83;;;2.80;;
10725;SDS011;5414;59.782;16.378;2023-08-06T02:14:15;3.20;;;2.90;;
10725;SDS011;5414;59.782;16.378;2023-08-06T02:16:42;3.63;;;3.00;;
10725;SDS011;5414;59.782;16.378;2023-08-06T02:19:08;3.03;;;2.73;;
10725;SDS011;5414;59.782;16.378;2023-08-06T02:21:34;4.10;;;2.90;;
10725;SDS011;5414;59.782;16.378;2023-08-06T02:24:00;3.63;;;2.80;;
10725;SDS011;5414;59.782;16.378;2023-08-06T02:26:26;4.17;;;3.00;;
10725;SDS011;5414;59.782;16.378;2023-08-06T02:28:53;3.10;;;2.70;;
10725;SDS011;5414;59.782;16.378;2023-08-06T02:31:19;3.00;;;2.70;;
10725;SDS011;5414;59.782;16.378;2023-08-06T02:33:45;3.27;;;2.37;;
10725;SDS011;5414;59.782;16.378;2023-08-06T02:36:11;3.90;;;3.00;;
10725;SDS011;5414;59.782;16.378;2023-08-06T02:38:37;4.50;;;3.00;;
10725;SDS011;5414;59.782;16.378;2023-08-06T02:41:03;4.93;;;3.00;;
10725;SDS011;5414;59.782;16.378;2023-08-06T02:43:29;4.40;;;3.30;;
10725;SDS011;5414;59.782;16.378;2023-08-06T02:45:59;5.10;;;3.07;;
10725;SDS011;5414;59.782;16.378;2023-08-06T02:48:25;20.10;;;4.23;;
10725;SDS011;5414;59.782;16.378;2023-08-06T02:50:52;3.73;;;2.50;;
10725;SDS011;5414;59.782;16.378;2023-08-06T02:53:18;2.60;;;2.40;;
10725;SDS011;5414;59.782;16.378;2023-08-06T02:55:47;5.83;;;2.77;;
10725;SDS011;5414;59.782;16.378;2023-08-06T02:58:16;6.13;;;3.20;;
10725;SDS011;5414;59.782;16.378;2023-08-06T03:00:47;2.87;;;2.60;;
10725;SDS011;5414;59.782;16.378;2023-08-06T03:03:14;4.47;;;2.70;;
10725;SDS011;5414;59.782;16.378;2023-08-06T03:05:40;5.97;;;3.10;;
10725;SDS011;5414;59.782;16.378;2023-08-06T03:08:06;7.70;;;3.60;;
10725;SDS011;5414;59.782;16.378;2023-08-06T03:10:32;9.10;;;3.53;;
10725;SDS011;5414;59.782;16.378;2023-08-06T03:12:58;30.93;;;3.93;;
10725;SDS011;5414;59.782;16.378;2023-08-06T03:15:24;3.17;;;2.40;;
10725;SDS011;5414;59.782;16.378;2023-08-06T03:17:52;2.77;;;2.10;;
10725;SDS011;5414;59.782;16.378;2023-08-06T03:20:18;6.33;;;3.03;;
10725;SDS011;5414;59.782;16.378;2023-08-06T03:22:44;2.97;;;2.67;;
10725;SDS011;5414;59.782;16.378;2023-08-06T03:25:10;4.20;;;3.37;;
10725;SDS011;5414;59.782;16.378;2023-08-06T03:27:36;5.47;;;3.13;;
10725;SDS011;5414;59.782;16.378;2023-08-06T03:30:03;5.30;;;3.70;;
10725;SDS011;5414;59.782;16.378;2023-08-06T03:32:29;5.27;;;3.50;;
10725;SDS011;5414;59.782;16.378;2023-08-06T03:34:55;7.77;;;3.67;;
10725;SDS011;5414;59.782;16.378;2023-08-06T03:37:21;6.83;;;3.90;;
10725;SDS011;5414;59.782;16.378;2023-08-06T03:39:47;4.53;;;3.40;;
10725;SDS011;5414;59.782;16.378;2023-08-06T03:42:13;4.17;;;3.27;;
10725;SDS011;5414;59.782;16.378;2023-08-06T03:44:39;4.43;;;3.87;;
10725;SDS011;5414;59.782;16.378;2023-08-06T03:47:05;3.23;;;2.93;;
10725;SDS011;5414;59.782;16.378;2023-08-06T03:49:31;8.03;;;3.60;;
10725;SDS011;5414;59.782;16.378;2023-08-06T03:51:57;5.40;;;3.30;;
10725;SDS011;5414;59.782;16.378;2023-08-06T03:54:23;4.43;;;3.40;;
10725;SDS011;5414;59.782;16.378;2023-08-06T03:56:49;4.13;;;3.23;;
10725;SDS011;5414;59.782;16.378;2023-08-06T03:59:16;5.10;;;3.23;;
10725;SDS011;5414;59.782;16.378;2023-08-06T04:01:42;5.30;;;3.77;;
10725;SDS011;5414;59.782;16.378;2023-08-06T04:04:08;5.40;;;3.53;;
10725;SDS011;5414;59.782;16.378;2023-08-06T04:06:34;4.23;;;3.60;;
10725;SDS011;5414;59.782;16.378;2023-08-06T04:09:00;5.93;;;3.70;;
10725;SDS011;5414;59.782;16.378;2023-08-06T04:11:26;5.23;;;4.20;;
10725;SDS011;5414;59.782;16.378;2023-08-06T04:13:52;9.37;;;3.63;;
10725;SDS011;5414;59.782;16.378;2023-08-06T04:16:20;5.60;;;3.80;;
10725;SDS011;5414;59.782;16.378;2023-08-06T04:18:46;4.50;;;3.40;;
10725;SDS011;5414;59.782;16.378;2023-08-06T04:21:13;4.17;;;3.77;;
10725;SDS011;5414;59.782;16.378;2023-08-06T04:23:39;4.53;;;3.83;;
10725;SDS011;5414;59.782;16.378;2023-08-06T04:26:05;6.57;;;4.10;;
10725;SDS011;5414;59.782;16.378;2023-08-06T04:28:31;7.20;;;3.60;;
10725;SDS011;5414;59.782;16.378;2023-08-06T04:30:58;4.20;;;3.77;;
10725;SDS011;5414;59.782;16.378;2023-08-06T04:33:24;5.97;;;4.03;;
10725;SDS011;5414;59.782;16.378;2023-08-06T04:35:54;5.83;;;3.67;;
10725;SDS011;5414;59.782;16.378;2023-08-06T04:38:24;3.80;;;3.50;;
10725;SDS011;5414;59.782;16.378;2023-08-06T04:40:50;3.80;;;3.40;;
10725;SDS011;5414;59.782;16.378;2023-08-06T04:43:16;5.50;;;3.77;;
10725;SDS011;5414;59.782;16.378;2023-08-06T04:45:45;5.53;;;3.77;;
10725;SDS011;5414;59.782;16.378;2023-08-06T04:48:12;5.10;;;3.37;;
10725;SDS011;5414;59.782;16.378;2023-08-06T04:50:38;3.50;;;3.00;;
10725;SDS011;5414;59.782;16.378;2023-08-06T04:53:04;6.17;;;3.67;;
10725;SDS011;5414;59.782;16.378;2023-08-06T04:55:30;5.50;;;3.60;;
10725;SDS011;5414;59.782;16.378;2023-08-06T04:57:56;7.47;;;3.97;;
10725;SDS011;5414;59.782;16.378;2023-08-06T05:00:22;6.07;;;3.60;;
10725;SDS011;5414;59.782;16.378;2023-08-06T05:02:48;4.87;;;3.97;;
10725;SDS011;5414;59.782;16.378;2023-08-06T05:05:14;6.23;;;3.70;;
10725;SDS011;5414;59.782;16.378;2023-08-06T05:07:40;4.77;;;4.10;;
10725;SDS011;5414;59.782;16.378;2023-08-06T05:10:06;6.40;;;3.80;;
10725;SDS011;5414;59.782;16.378;2023-08-06T05:12:32;6.33;;;4.10;;
10725;SDS011;5414;59.782;16.378;2023-08-06T05:14:58;5.83;;;4.27;;
10725;SDS011;5414;59.782;16.378;2023-08-06T05:17:24;5.97;;;4.00;;
10725;SDS011;5414;59.782;16.378;2023-08-06T05:19:50;5.60;;;4.00;;
10725;SDS011;5414;59.782;16.378;2023-08-06T05:22:17;4.80;;;3.77;;
10725;SDS011;5414;59.782;16.378;2023-08-06T05:24:43;4.73;;;4.27;;
10725;SDS011;5414;59.782;16.378;2023-08-06T05:27:09;5.10;;;4.13;;
10725;SDS011;5414;59.782;16.378;2023-08-06T05:29:35;5.57;;;4.57;;
10725;SDS011;5414;59.782;16.378;2023-08-06T05:32:01;5.87;;;3.93;;
10725;SDS011;5414;59.782;16.378;2023-08-06T05:34:28;5.30;;;3.80;;
10725;SDS011;5414;59.782;16.378;2023-08-06T05:36:54;4.73;;;4.10;;
10725;SDS011;5414;59.782;16.378;2023-08-06T05:39:20;4.80;;;3.83;;
10725;SDS011;5414;59.782;16.378;2023-08-06T05:41:47;5.77;;;3.87;;
10725;SDS011;5414;59.782;16.378;2023-08-06T05:44:14;6.13;;;3.93;;
10725;SDS011;5414;59.782;16.378;2023-08-06T05:46:40;7.23;;;4.10;;
10725;SDS011;5414;59.782;16.378;2023-08-06T05:49:06;6.00;;;3.97;;
10725;SDS011;5414;59.782;16.378;2023-08-06T05:51:32;6.60;;;3.80;;
10725;SDS011;5414;59.782;16.378;2023-08-06T05:53:58;4.90;;;3.80;;
10725;SDS011;5414;59.782;16.378;2023-08-06T05:56:24;4.63;;;3.90;;
10725;SDS011;5414;59.782;16.378;2023-08-06T05:58:50;5.33;;;3.77;;
10725;SDS011;5414;59.782;16.378;2023-08-06T06:01:18;7.87;;;4.13;;
10725;SDS011;5414;59.782;16.378;2023-08-06T06:03:44;4.40;;;3.83;;
10725;SDS011;5414;59.782;16.378;2023-08-06T06:06:10;4.10;;;3.70;;
10725;SDS011;5414;59.782;16.378;2023-08-06T06:08:36;5.57;;;3.90;;
10725;SDS011;5414;59.782;16.378;2023-08-06T06:11:02;4.87;;;3.50;;
10725;SDS011;5414;59.782;16.378;2023-08-06T06:13:28;5.03;;;3.67;;
10725;SDS011;5414;59.782;16.378;2023-08-06T06:15:54;4.67;;;3.57;;
10725;SDS011;5414;59.782;16.378;2023-08-06T06:18:21;6.10;;;3.50;;
10725;SDS011;5414;59.782;16.378;2023-08-06T06:20:47;6.47;;;4.00;;
10725;SDS011;5414;59.782;16.378;2023-08-06T06:23:13;3.83;;;3.53;;
10725;SDS011;5414;59.782;16.378;2023-08-06T06:25:43;5.63;;;3.60;;
10725;SDS011;5414;59.782;16.378;2023-08-06T06:28:09;4.13;;;3.63;;
10725;SDS011;5414;59.782;16.378;2023-08-06T06:30:35;5.27;;;3.60;;
10725;SDS011;5414;59.782;16.378;2023-08-06T06:33:02;4.07;;;3.53;;
10725;SDS011;5414;59.782;16.378;2023-08-06T06:35:28;4.17;;;3.30;;
10725;SDS011;5414;59.782;16.378;2023-08-06T06:37:54;4.27;;;3.63;;
10725;SDS011;5414;59.782;16.378;2023-08-06T06:40:20;4.20;;;3.57;;
10725;SDS011;5414;59.782;16.378;2023-08-06T06:42:46;7.37;;;3.50;;
10725;SDS011;5414;59.782;16.378;2023-08-06T06:45:12;4.47;;;3.27;;
10725;SDS011;5414;59.782;16.378;2023-08-06T06:47:39;4.17;;;3.30;;
10725;SDS011;5414;59.782;16.378;2023-08-06T06:50:06;6.10;;;3.93;;
10725;SDS011;5414;59.782;16.378;2023-08-06T06:52:32;3.67;;;3.07;;
10725;SDS011;5414;59.782;16.378;2023-08-06T06:54:58;5.90;;;3.70;;
10725;SDS011;5414;59.782;16.378;2023-08-06T06:57:24;4.83;;;3.73;;
10725;SDS011;5414;59.782;16.378;2023-08-06T06:59:50;4.00;;;3.40;;
10725;SDS011;5414;59.782;16.378;2023-08-06T07:02:16;3.90;;;3.43;;
10725;SDS011;5414;59.782;16.378;2023-08-06T07:04:42;4.67;;;3.47;;
10725;SDS011;5414;59.782;16.378;2023-08-06T07:07:08;4.07;;;3.27;;
10725;SDS011;5414;59.782;16.378;2023-08-06T07:09:35;4.87;;;3.27;;
10725;SDS011;5414;59.782;16.378;2023-08-06T07:12:01;6.13;;;3.37;;
10725;SDS011;5414;59.782;16.378;2023-08-06T07:14:28;4.70;;;3.57;;
10725;SDS011;5414;59.782;16.378;2023-08-06T07:16:54;6.43;;;3.27;;
10725;SDS011;5414;59.782;16.378;2023-08-06T07:19:20;5.23;;;3.50;;
10725;SDS011;5414;59.782;16.378;2023-08-06T07:21:46;5.33;;;3.63;;
10725;SDS011;5414;59.782;16.378;2023-08-06T07:24:12;6.20;;;3.50;;
10725;SDS011;5414;59.782;16.378;2023-08-06T07:26:38;4.87;;;3.23;;
10725;SDS011;5414;59.782;16.378;2023-08-06T07:29:04;4.90;;;3.30;;
10725;SDS011;5414;59.782;16.378;2023-08-06T07:31:30;3.83;;;2.90;;
10725;SDS011;5414;59.782;16.378;2023-08-06T07:33:57;5.03;;;3.53;;
10725;SDS011;5414;59.782;16.378;2023-08-06T07:36:24;4.67;;;3.40;;
10725;SDS011;5414;59.782;16.378;2023-08-06T07:38:50;7.37;;;3.40;;
10725;SDS011;5414;59.782;16.378;2023-08-06T07:41:21;4.17;;;3.20;;
10725;SDS011;5414;59.782;16.378;2023-08-06T07:43:47;6.43;;;3.47;;
10725;SDS011;5414;59.782;16.378;2023-08-06T07:46:13;4.60;;;3.10;;
10725;SDS011;5414;59.782;16.378;2023-08-06T07:48:39;4.13;;;3.73;;
10725;SDS011;5414;59.782;16.378;2023-08-06T07:51:05;6.20;;;3.77;;
10725;SDS011;5414;59.782;16.378;2023-08-06T07:53:31;8.03;;;3.97;;
10725;SDS011;5414;59.782;16.378;2023-08-06T07:55:57;5.17;;;3.30;;
10725;SDS011;5414;59.782;16.378;2023-08-06T07:58:24;4.93;;;3.80;;
10725;SDS011;5414;59.782;16.378;2023-08-06T08:00:50;5.77;;;3.30;;
10725;SDS011;5414;59.782;16.378;2023-08-06T08:03:17;6.23;;;4.17;;
10725;SDS011;5414;59.782;16.378;2023-08-06T08:05:43;4.40;;;3.67;;
10725;SDS011;5414;59.782;16.378;2023-08-06T08:08:09;5.63;;;3.77;;
10725;SDS011;5414;59.782;16.378;2023-08-06T08:10:35;5.00;;;3.90;;
10725;SDS011;5414;59.782;16.378;2023-08-06T08:13:03;5.13;;;4.17;;
10725;SDS011;5414;59.782;16.378;2023-08-06T08:15:29;3.97;;;3.60;;
10725;SDS011;5414;59.782;16.378;2023-08-06T08:17:56;8.37;;;3.63;;
10725;SDS011;5414;59.782;16.378;2023-08-06T08:20:23;5.60;;;3.80;;
10725;SDS011;5414;59.782;16.378;2023-08-06T08:22:50;4.00;;;3.53;;
10725;SDS011;5414;59.782;16.378;2023-08-06T08:25:16;3.93;;;3.53;;
10725;SDS011;5414;59.782;16.378;2023-08-06T08:27:42;4.10;;;3.70;;
10725;SDS011;5414;59.782;16.378;2023-08-06T08:30:08;4.67;;;3.70;;
10725;SDS011;5414;59.782;16.378;2023-08-06T08:32:34;5.67;;;4.07;;
10725;SDS011;5414;59.782;16.378;2023-08-06T08:35:00;5.73;;;3.60;;
10725;SDS011;5414;59.782;16.378;2023-08-06T08:37:26;4.27;;;3.53;;
10725;SDS011;5414;59.782;16.378;2023-08-06T08:39:52;6.70;;;3.53;;
10725;SDS011;5414;59.782;16.378;2023-08-06T08:42:18;5.33;;;3.80;;
10725;SDS011;5414;59.782;16.378;2023-08-06T08:44:45;4.33;;;3.20;;
10725;SDS011;5414;59.782;16.378;2023-08-06T08:47:11;5.20;;;3.47;;
10725;SDS011;5414;59.782;16.378;2023-08-06T08:49:37;4.80;;;3.63;;
10725;SDS011;5414;59.782;16.378;2023-08-06T08:52:03;5.53;;;3.57;;
10725;SDS011;5414;59.782;16.378;2023-08-06T08:54:37;4.73;;;3.70;;
10725;SDS011;5414;59.782;16.378;2023-08-06T08:57:04;5.47;;;3.90;;
10725;SDS011;5414;59.782;16.378;2023-08-06T08:59:31;4.07;;;3.30;;
10725;SDS011;5414;59.782;16.378;2023-08-06T09:01:57;5.53;;;3.90;;
10725;SDS011;5414;59.782;16.378;2023-08-06T09:04:24;4.83;;;3.67;;
10725;SDS011;5414;59.782;16.378;2023-08-06T09:06:53;4.50;;;3.60;;
10725;SDS011;5414;59.782;16.378;2023-08-06T09:09:30;5.70;;;3.73;;
10725;SDS011;5414;59.782;16.378;2023-08-06T09:11:59;4.27;;;3.57;;
10725;SDS011;5414;59.782;16.378;2023-08-06T09:14:27;5.80;;;3.33;;
10725;SDS011;5414;59.782;16.378;2023-08-06T09:16:53;5.33;;;3.77;;
10725;SDS011;5414;59.782;16.378;2023-08-06T09:19:19;5.20;;;3.20;;
10725;SDS011;5414;59.782;16.378;2023-08-06T09:21:46;4.00;;;3.37;;
10725;SDS011;5414;59.782;16.378;2023-08-06T09:24:15;3.63;;;3.30;;
10725;SDS011;5414;59.782;16.378;2023-08-06T09:26:43;3.43;;;3.13;;
10725;SDS011;5414;59.782;16.378;2023-08-06T09:29:09;5.27;;;3.47;;
10725;SDS011;5414;59.782;16.378;2023-08-06T09:31:43;3.97;;;3.60;;
10725;SDS011;5414;59.782;16.378;2023-08-06T09:34:16;4.00;;;3.47;;
10725;SDS011;5414;59.782;16.378;2023-08-06T09:36:52;3.57;;;3.27;;
10725;SDS011;5414;59.782;16.378;2023-08-06T09:39:25;4.30;;;3.43;;
10725;SDS011;5414;59.782;16.378;2023-08-06T09:41:52;4.97;;;3.50;;
10725;SDS011;5414;59.782;16.378;2023-08-06T09:44:21;4.80;;;3.50;;
10725;SDS011;5414;59.782;16.378;2023-08-06T09:46:51;3.93;;;3.53;;
10725;SDS011;5414;59.782;16.378;2023-08-06T09:49:21;3.90;;;3.43;;
10725;SDS011;5414;59.782;16.378;2023-08-06T09:51:49;3.70;;;3.30;;
10725;SDS011;5414;59.782;16.378;2023-08-06T09:54:17;3.63;;;3.33;;
10725;SDS011;5414;59.782;16.378;2023-08-06T09:56:44;4.33;;;3.37;;
10725;SDS011;5414;59.782;16.378;2023-08-06T09:59:10;4.43;;;3.33;;
10725;SDS011;5414;59.782;16.378;2023-08-06T10:01:36;4.13;;;3.73;;
10725;SDS011;5414;59.782;16.378;2023-08-06T10:04:03;3.80;;;3.40;;
10725;SDS011;5414;59.782;16.378;2023-08-06T10:06:29;3.47;;;3.17;;
10725;SDS011;5414;59.782;16.378;2023-08-06T10:08:55;4.77;;;3.50;;
10725;SDS011;5414;59.782;16.378;2023-08-06T10:11:22;4.63;;;3.40;;
10725;SDS011;5414;59.782;16.378;2023-08-06T10:13:51;3.60;;;3.30;;
10725;SDS011;5414;59.782;16.378;2023-08-06T10:16:18;4.03;;;3.37;;
10725;SDS011;5414;59.782;16.378;2023-08-06T10:18:44;4.80;;;3.67;;
10725;SDS011;5414;59.782;16.378;2023-08-06T10:21:10;6.23;;;3.80;;
10725;SDS011;5414;59.782;16.378;2023-08-06T10:23:39;4.07;;;3.23;;
10725;SDS011;5414;59.782;16.378;2023-08-06T10:26:06;3.97;;;3.60;;
10725;SDS011;5414;59.782;16.378;2023-08-06T10:28:38;4.20;;;3.53;;
10725;SDS011;5414;59.782;16.378;2023-08-06T10:31:04;4.93;;;3.90;;
10725;SDS011;5414;59.782;16.378;2023-08-06T10:33:43;4.33;;;3.70;;
10725;SDS011;5414;59.782;16.378;2023-08-06T10:36:10;4.87;;;3.50;;
10725;SDS011;5414;59.782;16.378;2023-08-06T10:38:45;5.53;;;4.00;;
10725;SDS011;5414;59.782;16.378;2023-08-06T10:41:17;4.13;;;3.77;;
10725;SDS011;5414;59.782;16.378;2023-08-06T10:43:44;4.10;;;3.70;;
10725;SDS011;5414;59.782;16.378;2023-08-06T10:46:23;6.37;;;3.30;;
10725;SDS011;5414;59.782;16.378;2023-08-06T10:48:49;3.63;;;3.33;;
10725;SDS011;5414;59.782;16.378;2023-08-06T10:51:15;4.07;;;3.40;;
10725;SDS011;5414;59.782;16.378;2023-08-06T10:53:42;4.27;;;3.67;;
10725;SDS011;5414;59.782;16.378;2023-08-06T10:56:14;5.33;;;3.80;;
10725;SDS011;5414;59.782;16.378;2023-08-06T10:58:41;4.33;;;3.77;;
10725;SDS011;5414;59.782;16.378;2023-08-06T11:01:08;4.17;;;3.80;;
10725;SDS011;5414;59.782;16.378;2023-08-06T11:03:34;3.80;;;3.50;;
10725;SDS011;5414;59.782;16.378;2023-08-06T11:06:00;3.70;;;3.40;;
10725;SDS011;5414;59.782;16.378;2023-08-06T11:08:32;4.23;;;3.50;;
10725;SDS011;5414;59.782;16.378;2023-08-06T11:11:11;3.80;;;3.50;;
10725;SDS011;5414;59.782;16.378;2023-08-06T11:13:38;3.60;;;3.30;;
10725;SDS011;5414;59.782;16.378;2023-08-06T11:16:05;4.60;;;3.30;;
10725;SDS011;5414;59.782;16.378;2023-08-06T11:18:31;3.80;;;3.50;;
10725;SDS011;5414;59.782;16.378;2023-08-06T11:21:00;5.23;;;3.60;;
10725;SDS011;5414;59.782;16.378;2023-08-06T11:23:27;4.47;;;3.57;;
10725;SDS011;5414;59.782;16.378;2023-08-06T11:25:54;3.37;;;3.17;;
10725;SDS011;5414;59.782;16.378;2023-08-06T11:28:20;3.60;;;3.30;;
10725;SDS011;5414;59.782;16.378;2023-08-06T11:30:47;5.30;;;3.43;;
10725;SDS011;5414;59.782;16.378;2023-08-06T11:33:13;4.07;;;3.67;;
10725;SDS011;5414;59.782;16.378;2023-08-06T11:35:39;4.27;;;3.50;;
10725;SDS011;5414;59.782;16.378;2023-08-06T11:38:05;3.50;;;3.20;;
10725;SDS011;5414;59.782;16.378;2023-08-06T11:40:31;4.43;;;3.60;;
10725;SDS011;5414;59.782;16.378;2023-08-06T11:42:58;5.43;;;3.50;;
10725;SDS011;5414;59.782;16.378;2023-08-06T11:45:24;3.57;;;3.27;;
10725;SDS011;5414;59.782;16.378;2023-08-06T11:47:51;4.03;;;3.63;;
10725;SDS011;5414;59.782;16.378;2023-08-06T11:50:27;3.77;;;3.47;;
10725;SDS011;5414;59.782;16.378;2023-08-06T11:52:57;4.27;;;3.70;;
10725;SDS011;5414;59.782;16.378;2023-08-06T11:55:24;3.53;;;3.23;;
10725;SDS011;5414;59.782;16.378;2023-08-06T11:57:50;3.83;;;3.47;;
10725;SDS011;5414;59.782;16.378;2023-08-06T12:00:17;3.53;;;3.23;;
10725;SDS011;5414;59.782;16.378;2023-08-06T12:02:45;3.33;;;3.13;;
10725;SDS011;5414;59.782;16.378;2023-08-06T12:07:44;4.83;;;3.10;;
10725;SDS011;5414;59.782;16.378;2023-08-06T12:10:12;3.30;;;3.00;;
10725;SDS011;5414;59.782;16.378;2023-08-06T12:12:38;3.97;;;3.20;;
10725;SDS011;5414;59.782;16.378;2023-08-06T12:15:05;3.30;;;3.00;;
10725;SDS011;5414;59.782;16.378;2023-08-06T12:17:31;3.40;;;2.80;;
10725;SDS011;5414;59.782;16.378;2023-08-06T12:19:57;6.07;;;3.00;;
10725;SDS011;5414;59.782;16.378;2023-08-06T12:22:23;3.23;;;2.70;;
10725;SDS011;5414;59.782;16.378;2023-08-06T12:24:49;3.23;;;2.93;;
10725;SDS011;5414;59.782;16.378;2023-08-06T12:27:16;2.90;;;2.60;;
10725;SDS011;5414;59.782;16.378;2023-08-06T12:29:42;3.10;;;2.53;;
10725;SDS011;5414;59.782;16.378;2023-08-06T12:32:09;2.80;;;2.50;;
10725;SDS011;5414;59.782;16.378;2023-08-06T12:34:39;2.63;;;2.43;;
10725;SDS011;5414;59.782;16.378;2023-08-06T12:37:06;2.83;;;2.63;;
10725;SDS011;5414;59.782;16.378;2023-08-06T12:39:32;3.27;;;2.63;;
10725;SDS011;5414;59.782;16.378;2023-08-06T12:41:59;2.83;;;2.53;;
10725;SDS011;5414;59.782;16.378;2023-08-06T12:44:25;2.73;;;2.53;;
10725;SDS011;5414;59.782;16.378;2023-08-06T12:46:51;2.97;;;2.60;;
10725;SDS011;5414;59.782;16.378;2023-08-06T12:49:18;3.83;;;3.30;;
10725;SDS011;5414;59.782;16.378;2023-08-06T12:51:46;3.33;;;2.97;;
10725;SDS011;5414;59.782;16.378;2023-08-06T12:54:12;3.80;;;2.73;;
10725;SDS011;5414;59.782;16.378;2023-08-06T12:56:38;3.63;;;2.83;;
10725;SDS011;5414;59.782;16.378;2023-08-06T12:59:04;3.77;;;2.90;;
10725;SDS011;5414;59.782;16.378;2023-08-06T13:01:30;3.20;;;2.97;;
10725;SDS011;5414;59.782;16.378;2023-08-06T13:03:58;4.00;;;3.13;;
10725;SDS011;5414;59.782;16.378;2023-08-06T13:06:24;3.67;;;3.20;;
10725;SDS011;5414;59.782;16.378;2023-08-06T13:08:50;3.70;;;3.30;;
10725;SDS011;5414;59.782;16.378;2023-08-06T13:11:16;3.30;;;3.00;;
10725;SDS011;5414;59.782;16.378;2023-08-06T13:13:44;3.73;;;3.07;;
10725;SDS011;5414;59.782;16.378;2023-08-06T13:16:10;5.60;;;3.33;;
10725;SDS011;5414;59.782;16.378;2023-08-06T13:18:36;4.63;;;3.13;;
10725;SDS011;5414;59.782;16.378;2023-08-06T13:21:02;4.10;;;3.43;;
10725;SDS011;5414;59.782;16.378;2023-08-06T13:23:28;3.53;;;2.83;;
10725;SDS011;5414;59.782;16.378;2023-08-06T13:25:54;4.27;;;3.27;;
10725;SDS011;5414;59.782;16.378;2023-08-06T13:28:20;5.10;;;3.40;;
10725;SDS011;5414;59.782;16.378;2023-08-06T13:30:46;3.63;;;3.33;;
10725;SDS011;5414;59.782;16.378;2023-08-06T13:33:12;4.03;;;3.63;;
10725;SDS011;5414;59.782;16.378;2023-08-06T13:35:38;4.73;;;3.17;;
10725;SDS011;5414;59.782;16.378;2023-08-06T13:38:06;4.87;;;3.10;;
10725;SDS011;5414;59.782;16.378;2023-08-06T13:40:32;4.97;;;3.20;;
10725;SDS011;5414;59.782;16.378;2023-08-06T13:42:59;5.33;;;3.23;;
10725;SDS011;5414;59.782;16.378;2023-08-06T13:45:25;3.73;;;3.43;;
10725;SDS011;5414;59.782;16.378;2023-08-06T13:47:51;3.53;;;3.23;;
10725;SDS011;5414;59.782;16.378;2023-08-06T13:50:17;4.03;;;3.63;;
10725;SDS011;5414;59.782;16.378;2023-08-06T13:52:44;4.47;;;3.27;;
10725;SDS011;5414;59.782;16.378;2023-08-06T13:55:10;5.37;;;3.47;;
10725;SDS011;5414;59.782;16.378;2023-08-06T13:57:36;4.30;;;3.67;;
10725;SDS011;5414;59.782;16.378;2023-08-06T14:00:03;3.77;;;3.40;;
10725;SDS011;5414;59.782;16.378;2023-08-06T14:02:29;4.10;;;3.77;;
10725;SDS011;5414;59.782;16.378;2023-08-06T14:04:55;5.57;;;3.83;;
10725;SDS011;5414;59.782;16.378;2023-08-06T14:07:21;7.73;;;4.00;;
10725;SDS011;5414;59.782;16.378;2023-08-06T14:09:47;5.23;;;3.83;;
10725;SDS011;5414;59.782;16.378;2023-08-06T14:12:14;4.20;;;3.80;;
10725;SDS011;5414;59.782;16.378;2023-08-06T14:14:40;4.97;;;4.20;;
10725;SDS011;5414;59.782;16.378;2023-08-06T14:17:06;4.23;;;3.87;;
10725;SDS011;5414;59.782;16.378;2023-08-06T14:19:32;4.27;;;3.87;;
10725;SDS011;5414;59.782;16.378;2023-08-06T14:21:58;4.03;;;3.60;;
10725;SDS011;5414;59.782;16.378;2023-08-06T14:24:24;4.27;;;3.80;;
10725;SDS011;5414;59.782;16.378;2023-08-06T14:26:52;4.67;;;4.20;;
10725;SDS011;5414;59.782;16.378;2023-08-06T14:29:18;5.47;;;3.83;;
10725;SDS011;5414;59.782;16.378;2023-08-06T14:31:44;4.70;;;4.00;;
10725;SDS011;5414;59.782;16.378;2023-08-06T14:34:10;5.80;;;4.10;;
10725;SDS011;5414;59.782;16.378;2023-08-06T14:36:36;4.50;;;4.07;;
10725;SDS011;5414;59.782;16.378;2023-08-06T14:39:02;5.00;;;4.50;;
10725;SDS011;5414;59.782;16.378;2023-08-06T14:41:28;4.20;;;3.73;;
10725;SDS011;5414;59.782;16.378;2023-08-06T14:43:54;4.70;;;4.30;;
10725;SDS011;5414;59.782;16.378;2023-08-06T14:46:20;4.90;;;4.20;;
10725;SDS011;5414;59.782;16.378;2023-08-06T14:48:46;5.33;;;4.13;;
10725;SDS011;5414;59.782;16.378;2023-08-06T14:51:12;7.30;;;4.40;;
10725;SDS011;5414;59.782;16.378;2023-08-06T14:53:38;4.50;;;4.10;;
10725;SDS011;5414;59.782;16.378;2023-08-06T14:56:05;5.83;;;4.07;;